createdAt,value
2022-09-27T00:01:31.125Z,99344.23
2022-09-27T00:04:02.592Z,99342.39
2022-09-27T00:06:32.789Z,99340.53
2022-09-27T00:09:03.606Z,99334.27
2022-09-27T00:11:39.227Z,99336.11
2022-09-27T00:14:09.098Z,99327.03
2022-09-27T00:16:39.469Z,99332.23
2022-09-27T00:19:18.773Z,99328.64
2022-09-27T00:21:48.132Z,99323.98
2022-09-27T00:24:21.433Z,99318.13
2022-09-27T00:26:50.619Z,99318.30
2022-09-27T00:29:20.597Z,99315.80
2022-09-27T00:31:50.378Z,99308.63
2022-09-27T00:34:23.019Z,99306.11
2022-09-27T00:36:53.235Z,99307.73
2022-09-27T00:39:23.159Z,99304.38
2022-09-27T00:41:52.252Z,99293.03
2022-09-27T00:44:33.638Z,99288.30
2022-09-27T00:47:08.700Z,99284.66
2022-09-27T00:49:46.781Z,99286.63
2022-09-27T00:52:28.979Z,99283.88
2022-09-27T00:55:03.749Z,99290.93
2022-09-27T00:57:33.065Z,99278.80
2022-09-27T01:00:09.828Z,99271.40
2022-09-27T01:02:42.800Z,99267.28
2022-09-27T01:05:13.652Z,99271.40
2022-09-27T01:07:44.057Z,99265.06
2022-09-27T01:10:14.091Z,99258.67
2022-09-27T01:12:49.381Z,99269.13
2022-09-27T01:15:50.113Z,99261.19
2022-09-27T01:18:35.957Z,99255.45
2022-09-27T01:21:34.013Z,99249.66
2022-09-27T01:24:25.031Z,99243.86
2022-09-27T01:27:14.761Z,99249.72
2022-09-27T01:30:21.419Z,99241.17
2022-09-27T01:33:06.885Z,99227.44
2022-09-27T01:36:07.801Z,99226.60
2022-09-27T01:39:05.037Z,99225.17
2022-09-27T01:41:54.237Z,99222.42
2022-09-27T01:44:51.279Z,99226.96
2022-09-27T01:47:26.314Z,99222.78
2022-09-27T01:50:26.707Z,99217.59
2022-09-27T01:53:25.528Z,99220.03
2022-09-27T01:56:00.390Z,99215.97
2022-09-27T01:58:57.847Z,99209.11
2022-09-27T02:01:29.570Z,99198.66
2022-09-27T02:04:00.424Z,99194.41
2022-09-27T02:06:45.520Z,99199.02
2022-09-27T02:09:33.941Z,99199.31
2022-09-27T02:12:11.435Z,99202.66
2022-09-27T02:15:05.329Z,99197.46
2022-09-27T02:18:02.879Z,99201.05
2022-09-27T02:20:42.858Z,99194.77
2022-09-27T02:23:27.821Z,99193.16
2022-09-27T02:26:25.063Z,99193.16
2022-09-27T02:29:18.441Z,99185.99
2022-09-27T02:31:50.266Z,99184.33
2022-09-27T02:34:25.177Z,99173.33
2022-09-27T02:36:54.864Z,99171.96
2022-09-27T02:39:24.258Z,99177.75
2022-09-27T02:41:58.073Z,99175.30
2022-09-27T02:44:28.714Z,99176.92
2022-09-27T02:47:21.838Z,99175.84
2022-09-27T02:50:27.879Z,99171.13
2022-09-27T02:53:22.696Z,99163.66
2022-09-27T02:56:41.089Z,99158.17
2022-09-27T02:59:45.881Z,99157.33
2022-09-27T03:02:53.212Z,99152.44
2022-09-27T03:05:46.633Z,99146.94
2022-09-27T03:08:16.476Z,99148.97
2022-09-27T03:10:45.808Z,99153.92
2022-09-27T03:13:16.035Z,99157.80
2022-09-27T03:15:46.925Z,99149.27
2022-09-27T03:18:35.802Z,99144.84
2022-09-27T03:21:12.911Z,99141.27
2022-09-27T03:23:43.016Z,99141.86
2022-09-27T03:26:13.268Z,99142.45
2022-09-27T03:28:43.428Z,99138.92
2022-09-27T03:31:12.824Z,99135.10
2022-09-27T03:33:52.961Z,99148.06
2022-09-27T03:36:22.324Z,99140.95
2022-09-27T03:38:52.528Z,99137.66
2022-09-27T03:41:22.775Z,99131.87
2022-09-27T03:43:52.121Z,99134.08
2022-09-27T03:46:22.047Z,99140.41
2022-09-27T03:48:52.129Z,99137.18
2022-09-27T03:51:21.735Z,99131.44
2022-09-27T03:53:52.481Z,99128.16
2022-09-27T03:56:22.241Z,99130.02
2022-09-27T03:58:51.988Z,99127.80
2022-09-27T04:01:23.537Z,99128.64
2022-09-27T04:03:53.676Z,99129.72
2022-09-27T04:06:27.994Z,99139.63
2022-09-27T04:08:58.144Z,99133.00
2022-09-27T04:11:30.469Z,99126.08
2022-09-27T04:14:00.654Z,99124.47
2022-09-27T04:16:32.315Z,99127.80
2022-09-27T04:19:16.357Z,99124.76
2022-09-27T04:21:52.117Z,99123.92
2022-09-27T04:24:21.818Z,99131.39
2022-09-27T04:26:54.446Z,99124.81
2022-09-27T04:29:26.702Z,99127.86
2022-09-27T04:31:56.886Z,99119.02
2022-09-27T04:34:56.397Z,99116.46
2022-09-27T04:37:27.066Z,99115.92
2022-09-27T04:39:58.235Z,99118.73
2022-09-27T04:42:28.885Z,99110.78
2022-09-27T04:44:59.245Z,99108.57
2022-09-27T04:47:28.760Z,99110.78
2022-09-27T04:49:58.653Z,99099.20
2022-09-27T04:52:27.666Z,99092.33
2022-09-27T04:54:58.830Z,99088.50
2022-09-27T04:57:29.587Z,99085.75
2022-09-27T05:00:00.437Z,99087.42
2022-09-27T05:02:31.606Z,99082.23
2022-09-27T05:05:04.212Z,99074.87
2022-09-27T05:07:38.159Z,99072.95
2022-09-27T05:10:10.812Z,99068.00
2022-09-27T05:12:40.036Z,99066.92
2022-09-27T05:15:10.949Z,99076.00
2022-09-27T05:17:59.389Z,99071.39
2022-09-27T05:20:37.511Z,99070.02
2022-09-27T05:23:15.192Z,99073.89
2022-09-27T05:25:45.130Z,99069.53
2022-09-27T05:28:14.938Z,99070.46
2022-09-27T05:30:45.660Z,99074.88
2022-09-27T05:33:18.294Z,99075.96
2022-09-27T05:35:55.287Z,99086.95
2022-09-27T05:38:27.198Z,99090.54
2022-09-27T05:40:59.722Z,99086.77
2022-09-27T05:43:29.332Z,99088.48
2022-09-27T05:46:01.131Z,99091.58
2022-09-27T05:48:32.114Z,99090.39
2022-09-27T05:51:07.025Z,99095.35
2022-09-27T05:53:38.689Z,99088.53
2022-09-27T05:56:11.419Z,99089.71
2022-09-27T05:59:00.302Z,99084.80
2022-09-27T06:01:32.735Z,99090.30
2022-09-27T06:04:16.187Z,99084.31
2022-09-27T06:06:48.188Z,99090.98
2022-09-27T06:09:19.302Z,99087.48
2022-09-27T06:11:51.238Z,99094.45
2022-09-27T06:14:22.191Z,99085.42
2022-09-27T06:17:04.505Z,99084.92
2022-09-27T06:19:36.477Z,99087.38
2022-09-27T06:22:07.769Z,99079.97
2022-09-27T06:24:43.846Z,99076.97
2022-09-27T06:27:18.992Z,99075.30
2022-09-27T06:30:01.257Z,99075.06
2022-09-27T06:33:02.254Z,99078.94
2022-09-27T06:35:46.790Z,99082.23
2022-09-27T06:38:18.282Z,99080.31
2022-09-27T06:40:50.655Z,99076.80
2022-09-27T06:43:35.554Z,99088.44
2022-09-27T06:46:19.547Z,99084.11
2022-09-27T06:48:51.068Z,99082.78
2022-09-27T06:51:22.872Z,99083.70
2022-09-27T06:53:53.803Z,99079.37
2022-09-27T06:56:23.786Z,99082.97
2022-09-27T06:59:13.745Z,99080.75
2022-09-27T07:01:46.174Z,99075.00
2022-09-27T07:04:34.527Z,99068.08
2022-09-27T07:07:10.498Z,99063.91
2022-09-27T07:09:43.270Z,99061.45
2022-09-27T07:12:14.594Z,99060.66
2022-09-27T07:14:45.148Z,99068.71
2022-09-27T07:17:16.774Z,99070.67
2022-09-27T07:19:49.295Z,99078.14
2022-09-27T07:22:19.860Z,99081.14
2022-09-27T07:24:52.098Z,99077.84
2022-09-27T07:27:25.267Z,99079.47
2022-09-27T07:29:55.605Z,99070.97
2022-09-27T07:32:27.245Z,99069.38
2022-09-27T07:34:57.438Z,99061.17
2022-09-27T07:37:27.304Z,99062.05
2022-09-27T07:39:57.744Z,99058.46
2022-09-27T07:42:28.773Z,99060.67
2022-09-27T07:45:00.123Z,99060.42
2022-09-27T07:47:48.708Z,99060.97
2022-09-27T07:50:22.073Z,99061.26
2022-09-27T07:52:56.871Z,99055.55
2022-09-27T07:55:38.712Z,99053.08
2022-09-27T07:58:13.484Z,99049.75
2022-09-27T08:00:44.032Z,99052.00
2022-09-27T08:03:15.817Z,99038.53
2022-09-27T08:05:48.048Z,99037.45
2022-09-27T08:08:20.374Z,99044.58
2022-09-27T08:10:53.440Z,99040.99
2022-09-27T08:13:24.447Z,99042.95
2022-09-27T08:15:55.427Z,99042.23
2022-09-27T08:18:26.248Z,99043.64
2022-09-27T08:20:59.972Z,99043.14
2022-09-27T08:23:35.201Z,99044.52
2022-09-27T08:26:12.796Z,99043.43
2022-09-27T08:28:53.511Z,99044.84
2022-09-27T08:31:25.952Z,99044.05
2022-09-27T08:33:58.264Z,99050.44
2022-09-27T08:36:30.605Z,99045.51
2022-09-27T08:39:00.537Z,99046.59
2022-09-27T08:41:39.939Z,99039.20
2022-09-27T08:44:20.791Z,99047.25
2022-09-27T08:47:03.157Z,99043.95
2022-09-27T08:50:00.990Z,99037.66
2022-09-27T08:52:43.825Z,99034.36
2022-09-27T08:55:54.646Z,99050.05
2022-09-27T08:58:42.152Z,99044.83
2022-09-27T09:01:16.154Z,99051.96
2022-09-27T09:03:52.059Z,99047.29
2022-09-27T09:06:25.870Z,99036.86
2022-09-27T09:09:18.674Z,99035.81
2022-09-27T09:12:46.791Z,99027.03
2022-09-27T09:15:58.775Z,99028.99
2022-09-27T09:19:04.251Z,99036.23
2022-09-27T09:22:10.201Z,99036.82
2022-09-27T09:25:02.338Z,99034.64
2022-09-27T09:27:52.230Z,99033.27
2022-09-27T09:30:24.758Z,99030.80
2022-09-27T09:33:17.180Z,99023.12
2022-09-27T09:36:03.948Z,99028.11
2022-09-27T09:38:51.905Z,99033.70
2022-09-27T09:41:31.156Z,99022.45
2022-09-27T09:44:08.007Z,99022.80
2022-09-27T09:46:45.760Z,99027.73
2022-09-27T09:49:25.643Z,99026.65
2022-09-27T09:52:08.736Z,99025.84
2022-09-27T09:54:47.078Z,99038.53
2022-09-27T09:57:28.357Z,99029.47
2022-09-27T10:00:17.650Z,99029.73
2022-09-27T10:02:48.096Z,99023.16
2022-09-27T10:05:26.301Z,99026.55
2022-09-27T10:07:59.802Z,99022.45
2022-09-27T10:10:29.644Z,99027.99
2022-09-27T10:13:21.439Z,99023.28
2022-09-27T10:16:03.883Z,99015.53
2022-09-27T10:18:33.789Z,99014.16
2022-09-27T10:21:08.362Z,99014.73
2022-09-27T10:23:38.082Z,99018.35
2022-09-27T10:26:12.240Z,99013.13
2022-09-27T10:28:51.622Z,99020.81
2022-09-27T10:31:22.816Z,99021.42
2022-09-27T10:34:06.058Z,99018.09
2022-09-27T10:36:42.931Z,99009.56
2022-09-27T10:39:22.745Z,99006.84
2022-09-27T10:41:52.039Z,98999.41
2022-09-27T10:44:32.577Z,98999.15
2022-09-27T10:47:10.462Z,99003.08
2022-09-27T10:49:44.615Z,99007.53
2022-09-27T10:52:23.500Z,99008.39
2022-09-27T10:55:04.057Z,99011.15
2022-09-27T10:57:33.207Z,99011.92
2022-09-27T11:00:32.690Z,99014.94
2022-09-27T11:03:08.413Z,99007.80
2022-09-27T11:05:39.355Z,99002.56
2022-09-27T11:08:30.647Z,99004.23
2022-09-27T11:11:19.686Z,98990.70
2022-09-27T11:14:07.884Z,98982.98
2022-09-27T11:17:03.472Z,98984.65
2022-09-27T11:19:41.687Z,98989.06
2022-09-27T11:22:41.587Z,98982.70
2022-09-27T11:25:36.506Z,98971.90
2022-09-27T11:28:36.556Z,98968.57
2022-09-27T11:31:35.669Z,98950.94
2022-09-27T11:34:12.304Z,98942.95
2022-09-27T11:37:14.277Z,98956.77
2022-09-27T11:40:10.721Z,98965.90
2022-09-27T11:43:07.374Z,98966.20
2022-09-27T11:46:16.714Z,98968.73
2022-09-27T11:49:19.775Z,98962.39
2022-09-27T11:52:36.477Z,98960.52
2022-09-27T11:55:26.168Z,98960.33
2022-09-27T11:58:27.629Z,98971.95
2022-09-27T12:01:28.786Z,98975.34
2022-09-27T12:04:29.153Z,98969.88
2022-09-27T12:07:25.845Z,98967.13
2022-09-27T12:09:59.518Z,98966.85
2022-09-27T12:12:31.036Z,98965.45
2022-09-27T12:15:06.935Z,98969.59
2022-09-27T12:17:40.366Z,98973.17
2022-09-27T12:20:28.595Z,98968.52
2022-09-27T12:23:17.877Z,98970.73
2022-09-27T12:25:52.617Z,98979.83
2022-09-27T12:28:55.007Z,98979.28
2022-09-27T12:31:46.492Z,98976.81
2022-09-27T12:34:45.834Z,98971.02
2022-09-27T12:37:38.553Z,98963.30
2022-09-27T12:40:26.175Z,98962.50
2022-09-27T12:43:11.903Z,98963.90
2022-09-27T12:46:22.962Z,98960.88
2022-09-27T12:49:00.446Z,98968.91
2022-09-27T12:51:54.041Z,98962.02
2022-09-27T12:54:56.135Z,98967.82
2022-09-27T12:57:58.677Z,98964.23
2022-09-27T13:00:32.328Z,98967.80
2022-09-27T13:03:52.981Z,98972.48
2022-09-27T13:06:39.483Z,98971.10
2022-09-27T13:09:42.067Z,98973.01
2022-09-27T13:12:18.978Z,98968.30
2022-09-27T13:15:15.648Z,98973.25
2022-09-27T13:17:53.360Z,98970.77
2022-09-27T13:20:44.168Z,98965.25
2022-09-27T13:23:29.731Z,98964.69
2022-09-27T13:26:03.527Z,98965.78
2022-09-27T13:28:56.715Z,98978.19
2022-09-27T13:32:01.131Z,98976.81
2022-09-27T13:34:57.325Z,98966.88
2022-09-27T13:37:55.910Z,98963.28
2022-09-27T13:40:32.682Z,98952.52
2022-09-27T13:43:17.958Z,98946.14
2022-09-27T13:46:01.718Z,98948.90
2022-09-27T13:48:43.139Z,98953.33
2022-09-27T13:51:33.638Z,98949.73
2022-09-27T13:54:10.568Z,98947.26
2022-09-27T13:56:46.408Z,98949.47
2022-09-27T13:59:49.301Z,98946.71
2022-09-27T14:02:29.451Z,98953.34
2022-09-27T14:05:00.005Z,98945.91
2022-09-27T14:07:40.568Z,98946.19
2022-09-27T14:10:21.623Z,98944.00
2022-09-27T14:12:53.391Z,98945.69
2022-09-27T14:15:30.718Z,98944.59
2022-09-27T14:18:00.157Z,98948.18
2022-09-27T14:20:42.088Z,98946.80
2022-09-27T14:23:23.654Z,98947.34
2022-09-27T14:25:54.942Z,98951.48
2022-09-27T14:28:29.066Z,98956.73
2022-09-27T14:31:18.444Z,98948.18
2022-09-27T14:33:57.443Z,98945.98
2022-09-27T14:36:52.953Z,98949.30
2022-09-27T14:39:35.933Z,98953.98
2022-09-27T14:42:21.968Z,98957.57
2022-09-27T14:44:51.351Z,98952.89
2022-09-27T14:47:26.526Z,98949.56
2022-09-27T14:50:05.751Z,98945.40
2022-09-27T14:52:35.274Z,98950.11
2022-09-27T14:55:16.121Z,98950.94
2022-09-27T14:57:59.080Z,98951.75
2022-09-27T15:00:35.165Z,98952.30
2022-09-27T15:03:06.413Z,98958.08
2022-09-27T15:05:36.376Z,98960.83
2022-09-27T15:08:06.636Z,98960.57
2022-09-27T15:10:37.099Z,98953.12
2022-09-27T15:13:09.773Z,98954.50
2022-09-27T15:15:43.060Z,98957.00
2022-09-27T15:18:41.241Z,98952.58
2022-09-27T15:21:16.451Z,98950.94
2022-09-27T15:23:46.066Z,98957.02
2022-09-27T15:26:23.400Z,98952.60
2022-09-27T15:28:52.173Z,98950.08
2022-09-27T15:31:35.310Z,98942.91
2022-09-27T15:34:06.335Z,98951.42
2022-09-27T15:36:54.881Z,98944.81
2022-09-27T15:39:37.246Z,98939.84
2022-09-27T15:42:17.509Z,98938.17
2022-09-27T15:44:50.141Z,98927.08
2022-09-27T15:47:39.861Z,98928.38
2022-09-27T15:50:30.782Z,98935.25
2022-09-27T15:53:02.790Z,98936.89
2022-09-27T15:55:33.100Z,98936.30
2022-09-27T15:58:21.010Z,98937.65
2022-09-27T16:00:57.073Z,98942.85
2022-09-27T16:03:27.218Z,98932.32
2022-09-27T16:05:58.076Z,98930.84
2022-09-27T16:08:29.578Z,98931.64
2022-09-27T16:10:59.626Z,98936.88
2022-09-27T16:13:32.941Z,98942.64
2022-09-27T16:16:02.888Z,98942.61
2022-09-27T16:18:34.420Z,98937.91
2022-09-27T16:21:04.695Z,98941.47
2022-09-27T16:23:34.923Z,98948.91
2022-09-27T16:26:05.109Z,98953.04
2022-09-27T16:28:34.884Z,98955.22
2022-09-27T16:31:07.826Z,98958.52
2022-09-27T16:33:37.009Z,98958.78
2022-09-27T16:36:09.782Z,98959.33
2022-09-27T16:38:42.028Z,98958.78
2022-09-27T16:41:11.774Z,98960.42
2022-09-27T16:43:44.891Z,98968.97
2022-09-27T16:46:16.099Z,98962.89
2022-09-27T16:48:49.512Z,98964.00
2022-09-27T16:51:39.979Z,98965.38
2022-09-27T16:54:09.685Z,98970.34
2022-09-27T16:56:40.028Z,98962.89
2022-09-27T16:59:09.490Z,98951.80
2022-09-27T17:01:40.128Z,98950.39
2022-09-27T17:04:09.642Z,98948.16
2022-09-27T17:06:38.892Z,98948.98
2022-09-27T17:09:08.327Z,98960.30
2022-09-27T17:11:37.191Z,98963.02
2022-09-27T17:14:08.218Z,98960.27
2022-09-27T17:16:38.016Z,98950.05
2022-09-27T17:19:09.160Z,98952.26
2022-09-27T17:21:38.382Z,98954.47
2022-09-27T17:24:09.809Z,98948.95
2022-09-27T17:26:40.224Z,98951.72
2022-09-27T17:29:12.625Z,98952.26
2022-09-27T17:31:42.625Z,98964.66
2022-09-27T17:34:13.526Z,98961.91
2022-09-27T17:36:44.022Z,98951.14
2022-09-27T17:39:14.679Z,98942.27
2022-09-27T17:41:46.346Z,98939.19
2022-09-27T17:44:18.550Z,98940.80
2022-09-27T17:46:50.689Z,98945.47
2022-09-27T17:49:38.205Z,98948.52
2022-09-27T17:52:08.780Z,98951.56
2022-09-27T17:54:40.087Z,98948.52
2022-09-27T17:57:10.551Z,98949.03
2022-09-27T17:59:41.233Z,98937.95
2022-09-27T18:02:10.326Z,98947.02
2022-09-27T18:04:39.963Z,98940.64
2022-09-27T18:07:11.212Z,98941.47
2022-09-27T18:09:43.234Z,98946.98
2022-09-27T18:12:13.467Z,98944.20
2022-09-27T18:14:45.886Z,98939.78
2022-09-27T18:17:16.913Z,98943.62
2022-09-27T18:19:46.621Z,98947.14
2022-09-27T18:22:16.456Z,98950.12
2022-09-27T18:24:46.478Z,98946.53
2022-09-27T18:27:17.826Z,98949.00
2022-09-27T18:29:46.877Z,98952.03
2022-09-27T18:32:16.913Z,98945.98
2022-09-27T18:34:46.020Z,98943.81
2022-09-27T18:37:15.403Z,98937.18
2022-09-27T18:39:45.479Z,98945.48
2022-09-27T18:42:14.380Z,98941.09
2022-09-27T18:44:44.124Z,98946.88
2022-09-27T18:47:15.155Z,98944.67
2022-09-27T18:49:44.815Z,98941.09
2022-09-27T18:52:13.711Z,98946.34
2022-09-27T18:54:43.910Z,98941.95
2022-09-27T18:57:12.988Z,98947.46
2022-09-27T18:59:42.790Z,98943.81
2022-09-27T19:02:13.076Z,98944.61
2022-09-27T19:04:42.448Z,98947.11
2022-09-27T19:07:11.745Z,98935.23
2022-09-27T19:09:40.604Z,98939.61
2022-09-27T19:12:10.309Z,98935.80
2022-09-27T19:14:41.869Z,98945.44
2022-09-27T19:17:11.888Z,98939.97
2022-09-27T19:19:42.005Z,98942.72
2022-09-27T19:22:11.273Z,98944.35
2022-09-27T19:24:40.674Z,98939.14
2022-09-27T19:27:11.099Z,98938.34
2022-09-27T19:29:40.554Z,98936.09
2022-09-27T19:32:10.386Z,98937.47
2022-09-27T19:34:40.318Z,98925.91
2022-09-27T19:37:11.252Z,98931.16
2022-09-27T19:39:41.293Z,98932.00
2022-09-27T19:42:11.011Z,98927.86
2022-09-27T19:44:41.116Z,98928.70
2022-09-27T19:47:10.817Z,98927.86
2022-09-27T19:49:40.758Z,98933.37
2022-09-27T19:52:10.434Z,98932.83
2022-09-27T19:54:40.209Z,98936.38
2022-09-27T19:57:10.249Z,98941.89
2022-09-27T19:59:42.269Z,98935.00
2022-09-27T20:02:12.205Z,98939.10
2022-09-27T20:04:41.986Z,98937.69
2022-09-27T20:07:11.128Z,98934.07
2022-09-27T20:09:42.034Z,98939.58
2022-09-27T20:12:11.561Z,98935.45
2022-09-27T20:14:42.582Z,98939.03
2022-09-27T20:17:12.154Z,98935.73
2022-09-27T20:19:42.265Z,98927.52
2022-09-27T20:22:12.096Z,98926.68
2022-09-27T20:24:41.521Z,98931.36
2022-09-27T20:27:11.389Z,98926.39
2022-09-27T20:29:41.100Z,98927.77
2022-09-27T20:32:26.756Z,98922.55
2022-09-27T20:34:42.371Z,98918.96
2022-09-27T20:37:11.925Z,98918.96
2022-09-27T20:39:42.419Z,98926.97
2022-09-27T20:42:13.215Z,98925.02
2022-09-27T20:44:42.606Z,98926.68
2022-09-27T20:47:12.507Z,98929.14
2022-09-27T20:49:42.717Z,98927.80
2022-09-27T20:52:12.124Z,98934.69
2022-09-27T20:54:41.389Z,98933.30
2022-09-27T20:57:12.872Z,98936.35
2022-09-27T20:59:43.089Z,98930.81
2022-09-27T21:02:12.024Z,98937.66
2022-09-27T21:04:41.731Z,98937.66
2022-09-27T21:07:11.799Z,98935.48
2022-09-27T21:09:41.260Z,98937.44
2022-09-27T21:12:11.546Z,98940.19
2022-09-27T21:14:43.843Z,98939.36
2022-09-27T21:17:13.541Z,98940.16
2022-09-27T21:19:42.977Z,98944.29
2022-09-27T21:22:12.857Z,98937.12
2022-09-27T21:24:42.368Z,98931.90
2022-09-27T21:27:12.194Z,98931.61
2022-09-27T21:29:41.747Z,98933.81
2022-09-27T21:32:11.396Z,98933.56
2022-09-27T21:34:41.607Z,98930.81
2022-09-27T21:37:11.134Z,98935.23
2022-09-27T21:39:40.502Z,98941.56
2022-09-27T21:42:11.010Z,98941.83
2022-09-27T21:44:40.618Z,98937.69
2022-09-27T21:47:10.877Z,98939.88
2022-09-27T21:49:40.513Z,98942.33
2022-09-27T21:52:09.578Z,98947.84
2022-09-27T21:54:39.723Z,98944.00
2022-09-27T21:57:09.244Z,98950.30
2022-09-27T21:59:39.489Z,98946.17
2022-09-27T22:02:09.497Z,98938.71
2022-09-27T22:04:39.452Z,98935.95
2022-09-27T22:07:09.378Z,98939.58
2022-09-27T22:09:39.597Z,98938.49
2022-09-27T22:12:09.619Z,98938.53
2022-09-27T22:14:40.957Z,98939.07
2022-09-27T22:17:09.848Z,98937.98
2022-09-27T22:19:39.597Z,98938.78
2022-09-27T22:22:08.887Z,98936.31
2022-09-27T22:24:38.231Z,98943.48
2022-09-27T22:27:08.748Z,98944.06
2022-09-27T22:29:37.692Z,98940.48
2022-09-27T22:32:08.541Z,98948.20
2022-09-27T22:34:38.427Z,98949.06
2022-09-27T22:37:08.099Z,98946.85
2022-09-27T22:39:38.281Z,98945.22
2022-09-27T22:42:08.985Z,98947.14
2022-09-27T22:44:39.506Z,98943.84
2022-09-27T22:47:09.201Z,98943.84
2022-09-27T22:49:38.960Z,98942.47
2022-09-27T22:52:08.038Z,98939.14
2022-09-27T22:54:37.477Z,98942.11
2022-09-27T22:57:07.701Z,98938.81
2022-09-27T22:59:37.730Z,98942.37
2022-09-27T23:02:07.840Z,98948.67
2022-09-27T23:04:37.138Z,98953.64
2022-09-27T23:07:07.585Z,98952.26
2022-09-27T23:09:38.092Z,98952.26
2022-09-27T23:12:09.029Z,98948.13
2022-09-27T23:14:42.549Z,98940.95
2022-09-27T23:17:11.324Z,98947.30
2022-09-27T23:19:42.569Z,98934.33
2022-09-27T23:22:13.844Z,98932.41
2022-09-27T23:24:44.039Z,98928.83
2022-09-27T23:27:32.367Z,98931.61
2022-09-27T23:30:01.511Z,98934.91
2022-09-27T23:32:32.071Z,98934.33
2022-09-27T23:35:01.618Z,98933.50
2022-09-27T23:37:31.472Z,98940.38
2022-09-27T23:40:17.046Z,98931.03
2022-09-27T23:42:48.105Z,98923.86
2022-09-27T23:45:18.989Z,98909.52
2022-09-27T23:47:48.700Z,98910.61
2022-09-27T23:50:17.928Z,98921.36
2022-09-27T23:52:47.640Z,98916.40
2022-09-27T23:55:17.883Z,98917.48
2022-09-27T23:57:47.738Z,98909.23
